createdAt,value
2023-04-05T00:00:18.137Z,25.71
2023-04-05T00:02:18.176Z,25.65
2023-04-05T00:04:18.366Z,25.63
2023-04-05T00:06:18.172Z,25.65
2023-04-05T00:08:18.163Z,25.61
2023-04-05T00:10:18.149Z,25.63
2023-04-05T00:12:18.171Z,25.64
2023-04-05T00:14:18.095Z,25.63
2023-04-05T00:16:18.219Z,25.60
2023-04-05T00:18:18.176Z,25.65
2023-04-05T00:20:18.194Z,25.61
2023-04-05T00:22:18.215Z,25.61
2023-04-05T00:24:18.258Z,25.65
2023-04-05T00:26:18.164Z,25.64
2023-04-05T00:28:18.205Z,25.61
2023-04-05T00:30:18.205Z,25.64
2023-04-05T00:32:18.151Z,25.60
2023-04-05T00:34:18.252Z,25.63
2023-04-05T00:36:18.211Z,25.65
2023-04-05T00:38:18.230Z,25.61
2023-04-05T00:40:18.238Z,25.61
2023-04-05T00:42:18.170Z,25.72
2023-04-05T00:44:18.230Z,25.61
2023-04-05T00:46:18.255Z,25.63
2023-04-05T00:48:18.227Z,25.74
2023-04-05T00:50:18.195Z,25.65
2023-04-05T00:52:18.252Z,25.57
2023-04-05T00:54:18.233Z,25.65
2023-04-05T00:56:18.274Z,25.58
2023-04-05T00:58:18.259Z,25.52
2023-04-05T01:00:18.223Z,25.75
2023-04-05T01:02:18.192Z,25.60
2023-04-05T01:04:18.237Z,25.60
2023-04-05T01:06:18.320Z,25.75
2023-04-05T01:08:18.213Z,25.79
2023-04-05T01:10:18.227Z,25.61
2023-04-05T01:12:18.273Z,25.65
2023-04-05T01:14:18.207Z,25.64
2023-04-05T01:16:18.346Z,25.72
2023-04-05T01:18:18.189Z,25.63
2023-04-05T01:20:18.266Z,25.57
2023-04-05T01:22:18.118Z,25.63
2023-04-05T01:24:18.152Z,25.71
2023-04-05T01:26:18.257Z,25.65
2023-04-05T01:28:18.255Z,25.71
2023-04-05T01:30:18.252Z,25.58
2023-04-05T01:32:18.255Z,25.72
2023-04-05T01:34:18.195Z,25.75
2023-04-05T01:36:18.329Z,25.65
2023-04-05T01:38:18.272Z,25.63
2023-04-05T01:40:18.300Z,25.63
2023-04-05T01:42:18.278Z,25.61
2023-04-05T01:44:18.256Z,25.65
2023-04-05T01:46:18.278Z,25.94
2023-04-05T01:48:18.385Z,25.65
2023-04-05T01:50:18.330Z,25.65
2023-04-05T01:52:18.449Z,25.63
2023-04-05T01:54:18.277Z,25.65
2023-04-05T01:56:18.297Z,25.64
2023-04-05T01:58:18.323Z,25.65
2023-04-05T02:00:18.281Z,24.80
2023-04-05T02:02:18.325Z,24.44
2023-04-05T02:04:18.300Z,24.33
2023-04-05T02:06:18.299Z,24.14
2023-04-05T02:08:18.343Z,24.00
2023-04-05T02:10:18.320Z,23.94
2023-04-05T02:12:18.292Z,23.86
2023-04-05T02:14:18.308Z,23.81
2023-04-05T02:16:18.339Z,23.85
2023-04-05T02:18:18.310Z,23.83
2023-04-05T02:20:18.333Z,23.76
2023-04-05T02:22:18.336Z,23.73
2023-04-05T02:24:18.315Z,23.80
2023-04-05T02:26:18.307Z,23.73
2023-04-05T02:28:18.387Z,23.67
2023-04-05T02:30:18.323Z,23.69
2023-04-05T02:32:18.338Z,23.69
2023-04-05T02:34:18.329Z,23.69
2023-04-05T02:36:18.349Z,23.73
2023-04-05T02:38:18.378Z,23.69
2023-04-05T02:40:18.348Z,23.68
2023-04-05T02:42:18.346Z,23.71
2023-04-05T02:44:18.360Z,23.67
2023-04-05T02:46:18.425Z,23.67
2023-04-05T02:48:18.440Z,23.62
2023-04-05T02:50:18.355Z,23.67
2023-04-05T02:52:18.249Z,23.66
2023-04-05T02:54:18.312Z,23.68
2023-04-05T02:56:18.360Z,23.64
2023-04-05T02:58:18.299Z,23.63
2023-04-05T03:00:18.399Z,23.58
2023-04-05T03:02:18.372Z,23.55
2023-04-05T03:04:18.411Z,23.58
2023-04-05T03:06:18.351Z,23.62
2023-04-05T03:08:18.366Z,23.65
2023-04-05T03:10:18.363Z,23.63
2023-04-05T03:12:18.339Z,23.68
2023-04-05T03:14:18.373Z,23.59
2023-04-05T03:16:18.360Z,23.63
2023-04-05T03:18:18.388Z,23.59
2023-04-05T03:20:18.362Z,23.54
2023-04-05T03:22:18.425Z,23.57
2023-04-05T03:24:18.314Z,23.53
2023-04-05T03:26:18.412Z,23.53
2023-04-05T03:28:18.465Z,23.29
2023-04-05T03:30:18.335Z,23.50
2023-04-05T03:32:18.387Z,23.40
2023-04-05T03:34:18.335Z,23.40
2023-04-05T03:36:18.359Z,23.40
2023-04-05T03:38:18.347Z,23.39
2023-04-05T03:40:18.356Z,23.37
2023-04-05T03:42:18.364Z,23.42
2023-04-05T03:44:18.392Z,23.38
2023-04-05T03:46:18.428Z,23.40
2023-04-05T03:48:18.384Z,23.38
2023-04-05T03:50:18.427Z,23.41
2023-04-05T03:52:18.437Z,23.33
2023-04-05T03:54:18.417Z,23.39
2023-04-05T03:56:18.372Z,23.34
2023-04-05T03:58:18.410Z,23.34
2023-04-05T04:00:18.430Z,23.26
2023-04-05T04:02:18.469Z,23.20
2023-04-05T04:04:18.393Z,23.20
2023-04-05T04:06:19.631Z,23.23
2023-04-05T04:08:18.433Z,23.08
2023-04-05T04:10:18.456Z,23.15
2023-04-05T04:12:18.414Z,23.21
2023-04-05T04:14:18.429Z,23.04
2023-04-05T04:16:18.431Z,23.04
2023-04-05T04:18:18.355Z,23.17
2023-04-05T04:20:18.406Z,23.06
2023-04-05T04:22:18.459Z,23.12
2023-04-05T04:24:18.394Z,23.08
2023-04-05T04:26:18.396Z,22.96
2023-04-05T04:28:18.581Z,23.11
2023-04-05T04:30:18.454Z,23.17
2023-04-05T04:32:18.571Z,23.25
2023-04-05T04:34:18.514Z,23.26
2023-04-05T04:36:19.025Z,23.01
2023-04-05T04:38:18.373Z,22.96
2023-04-05T04:40:18.467Z,23.26
2023-04-05T04:42:18.509Z,23.25
2023-04-05T04:44:18.552Z,23.25
2023-04-05T04:46:18.434Z,23.23
2023-04-05T04:48:18.548Z,23.23
2023-04-05T04:50:18.389Z,23.10
2023-04-05T04:52:18.497Z,23.19
2023-04-05T04:54:18.427Z,23.19
2023-04-05T04:56:18.536Z,23.22
2023-04-05T04:58:18.511Z,23.22
2023-04-05T05:00:18.492Z,23.20
2023-04-05T05:02:18.503Z,23.15
2023-04-05T05:04:18.528Z,23.16
2023-04-05T05:06:18.553Z,23.20
2023-04-05T05:08:21.357Z,23.20
2023-04-05T05:10:18.511Z,23.17
2023-04-05T05:12:18.503Z,23.16
2023-04-05T05:14:18.508Z,23.15
2023-04-05T05:16:18.366Z,23.25
2023-04-05T05:18:18.518Z,23.22
2023-04-05T05:20:18.509Z,23.25
2023-04-05T05:22:18.530Z,23.25
2023-04-05T05:24:18.525Z,23.26
2023-04-05T05:26:18.552Z,23.20
2023-04-05T05:28:18.830Z,23.25
2023-04-05T05:30:18.507Z,23.25
2023-04-05T05:32:18.459Z,23.34
2023-04-05T05:34:18.521Z,23.26
2023-04-05T05:36:18.543Z,23.30
2023-04-05T05:38:18.526Z,23.03
2023-04-05T05:40:18.519Z,23.27
2023-04-05T05:42:18.505Z,23.25
2023-04-05T05:44:18.561Z,23.27
2023-04-05T05:46:20.123Z,23.25
2023-04-05T05:48:18.472Z,23.26
2023-04-05T05:50:18.523Z,23.33
2023-04-05T05:52:18.473Z,23.27
2023-04-05T05:54:18.521Z,23.31
2023-04-05T05:56:18.462Z,23.38
2023-04-05T05:58:18.574Z,23.34
2023-04-05T06:00:18.569Z,23.28
2023-04-05T06:02:18.554Z,23.39
2023-04-05T06:04:18.672Z,23.38
2023-04-05T06:06:18.554Z,23.41
2023-04-05T06:08:18.534Z,23.39
2023-04-05T06:10:18.590Z,23.38
2023-04-05T06:12:19.653Z,23.42
2023-04-05T06:14:18.554Z,23.45
2023-04-05T06:16:18.570Z,23.54
2023-04-05T06:18:18.740Z,23.57
2023-04-05T06:20:18.567Z,23.59
2023-04-05T06:22:18.571Z,23.73
2023-04-05T06:24:18.491Z,23.77
2023-04-05T06:26:18.549Z,23.81
2023-04-05T06:28:18.524Z,24.00
2023-04-05T06:30:18.627Z,24.10
2023-04-05T06:32:18.546Z,24.22
2023-04-05T06:34:18.586Z,24.37
2023-04-05T06:36:18.624Z,24.51
2023-04-05T06:38:18.641Z,24.52
2023-04-05T06:40:18.749Z,24.53
2023-04-05T06:42:18.516Z,24.68
2023-04-05T06:44:18.540Z,24.66
2023-04-05T06:46:18.678Z,24.76
2023-04-05T06:48:18.635Z,24.73
2023-04-05T06:50:18.542Z,24.78
2023-04-05T06:52:18.555Z,24.90
2023-04-05T06:54:18.628Z,24.95
2023-04-05T06:56:18.592Z,25.00
2023-04-05T06:58:18.649Z,25.01
2023-04-05T07:00:18.571Z,25.15
2023-04-05T07:02:18.659Z,25.09
2023-04-05T07:04:18.582Z,25.13
2023-04-05T07:06:18.640Z,25.15
2023-04-05T07:08:18.675Z,25.18
2023-04-05T07:10:18.783Z,25.32
2023-04-05T07:12:18.600Z,25.25
2023-04-05T07:14:18.669Z,25.46
2023-04-05T07:16:18.613Z,25.45
2023-04-05T07:18:18.648Z,25.71
2023-04-05T07:20:18.441Z,25.85
2023-04-05T07:22:18.618Z,26.07
2023-04-05T07:24:18.597Z,26.28
2023-04-05T07:26:18.633Z,26.37
2023-04-05T07:28:18.682Z,24.99
2023-04-05T07:30:18.725Z,24.95
2023-04-05T07:32:18.711Z,24.93
2023-04-05T07:34:18.564Z,24.96
2023-04-05T07:36:18.649Z,24.96
2023-04-05T07:38:18.645Z,24.96
2023-04-05T07:40:18.550Z,24.95
2023-04-05T07:42:18.632Z,24.95
2023-04-05T07:44:19.293Z,24.96
2023-04-05T07:46:18.618Z,24.95
2023-04-05T07:48:18.705Z,24.96
2023-04-05T07:50:18.574Z,24.95
2023-04-05T07:52:18.669Z,24.95
2023-04-05T07:54:18.634Z,25.00
2023-04-05T07:56:18.637Z,24.95
2023-04-05T07:58:18.641Z,25.00
2023-04-05T08:00:18.681Z,25.06
2023-04-05T08:02:18.663Z,25.19
2023-04-05T08:04:18.617Z,25.25
2023-04-05T08:06:18.655Z,25.26
2023-04-05T08:08:18.682Z,25.29
2023-04-05T08:10:18.667Z,25.32
2023-04-05T08:12:18.677Z,25.35
2023-04-05T08:14:18.689Z,25.34
2023-04-05T08:16:18.772Z,25.32
2023-04-05T08:18:18.841Z,25.44
2023-04-05T08:20:18.681Z,25.37
2023-04-05T08:22:18.686Z,25.36
2023-04-05T08:24:18.620Z,25.38
2023-04-05T08:26:18.668Z,25.35
2023-04-05T08:28:18.688Z,25.35
2023-04-05T08:30:18.589Z,25.50
2023-04-05T08:32:18.620Z,25.40
2023-04-05T08:34:18.726Z,25.35
2023-04-05T08:36:18.693Z,25.51
2023-04-05T08:38:18.743Z,25.44
2023-04-05T08:40:18.667Z,25.14
2023-04-05T08:42:18.678Z,26.93
2023-04-05T08:44:18.722Z,26.74
2023-04-05T08:46:18.850Z,25.12
2023-04-05T08:48:18.701Z,24.95
2023-04-05T08:50:18.691Z,24.99
2023-04-05T08:52:18.710Z,25.08
2023-04-05T08:54:18.581Z,24.97
2023-04-05T08:56:18.803Z,24.96
2023-04-05T08:58:18.678Z,24.99
2023-04-05T09:00:18.749Z,25.05
2023-04-05T09:02:18.825Z,26.77
2023-04-05T09:04:18.708Z,25.01
2023-04-05T09:06:18.795Z,24.96
2023-04-05T09:08:18.787Z,24.95
2023-04-05T09:10:18.705Z,24.90
2023-04-05T09:12:18.795Z,25.01
2023-04-05T09:14:18.768Z,24.97
2023-04-05T09:16:18.818Z,26.65
2023-04-05T09:18:26.057Z,25.14
2023-04-05T09:20:18.636Z,26.91
2023-04-05T09:22:18.767Z,26.63
2023-04-05T09:24:18.780Z,26.88
2023-04-05T09:26:18.780Z,27.03
2023-04-05T09:28:18.720Z,25.15
2023-04-05T09:30:18.765Z,24.95
2023-04-05T09:32:18.749Z,24.94
2023-04-05T09:34:18.794Z,24.96
2023-04-05T09:36:18.664Z,25.05
2023-04-05T09:38:18.668Z,26.81
2023-04-05T09:40:18.755Z,24.96
2023-04-05T09:42:18.761Z,26.78
2023-04-05T09:44:18.859Z,24.92
2023-04-05T09:46:18.843Z,24.96
2023-04-05T09:48:18.809Z,24.96
2023-04-05T09:50:18.743Z,24.93
2023-04-05T09:52:18.813Z,25.01
2023-04-05T09:54:18.807Z,25.05
2023-04-05T09:56:18.909Z,24.94
2023-04-05T09:58:18.865Z,26.87
2023-04-05T10:00:18.790Z,25.01
2023-04-05T10:02:18.973Z,25.07
2023-04-05T10:04:18.802Z,25.19
2023-04-05T10:06:18.834Z,25.06
2023-04-05T10:08:18.786Z,25.08
2023-04-05T10:10:18.839Z,26.59
2023-04-05T10:12:18.764Z,26.63
2023-04-05T10:14:18.962Z,26.76
2023-04-05T10:16:18.869Z,24.90
2023-04-05T10:18:18.762Z,24.96
2023-04-05T10:20:18.831Z,24.97
2023-04-05T10:22:18.772Z,25.12
2023-04-05T10:24:18.800Z,25.23
2023-04-05T10:26:18.754Z,24.96
2023-04-05T10:28:18.773Z,25.06
2023-04-05T10:30:18.841Z,25.04
2023-04-05T10:32:18.761Z,25.29
2023-04-05T10:34:18.823Z,25.35
2023-04-05T10:36:18.855Z,25.43
2023-04-05T10:38:18.819Z,25.33
2023-04-05T10:40:19.015Z,25.31
2023-04-05T10:42:18.814Z,26.87
2023-04-05T10:44:26.329Z,26.89
2023-04-05T10:46:18.873Z,24.66
2023-04-05T10:48:18.830Z,26.65
2023-04-05T10:50:18.869Z,25.40
2023-04-05T10:52:18.844Z,25.37
2023-04-05T10:54:18.932Z,25.42
2023-04-05T10:56:18.839Z,25.37
2023-04-05T10:58:18.870Z,26.97
2023-04-05T11:00:18.776Z,24.94
2023-04-05T11:02:18.819Z,26.79
2023-04-05T11:04:18.889Z,25.14
2023-04-05T11:06:18.898Z,25.03
2023-04-05T11:08:18.814Z,25.33
2023-04-05T11:10:18.895Z,25.36
2023-04-05T11:12:18.755Z,25.33
2023-04-05T11:14:18.954Z,22.72
2023-04-05T11:16:18.879Z,24.97
2023-04-05T11:18:18.807Z,26.93
2023-04-05T11:20:18.887Z,25.01
2023-04-05T11:22:18.799Z,26.85
2023-04-05T11:24:18.891Z,26.85
2023-04-05T11:26:18.806Z,25.21
2023-04-05T11:28:18.793Z,25.13
2023-04-05T11:30:19.900Z,25.19
2023-04-05T11:32:18.844Z,25.09
2023-04-05T11:34:18.888Z,25.37
2023-04-05T11:36:18.991Z,25.35
2023-04-05T11:38:18.905Z,26.88
2023-04-05T11:40:18.844Z,24.97
2023-04-05T11:42:18.812Z,24.97
2023-04-05T11:44:19.004Z,24.97
2023-04-05T11:46:18.907Z,25.00
2023-04-05T11:48:18.896Z,24.95
2023-04-05T11:50:18.882Z,25.05
2023-04-05T11:52:18.927Z,26.94
2023-04-05T11:54:18.944Z,25.35
2023-04-05T11:56:18.944Z,24.95
2023-04-05T11:58:18.889Z,25.05
2023-04-05T12:00:18.946Z,25.04
2023-04-05T12:02:18.990Z,26.95
2023-04-05T12:04:18.755Z,25.01
2023-04-05T12:06:18.914Z,24.95
2023-04-05T12:08:18.930Z,24.98
2023-04-05T12:10:18.916Z,25.28
2023-04-05T12:12:18.837Z,26.80
2023-04-05T12:14:18.853Z,24.96
2023-04-05T12:16:18.901Z,24.93
2023-04-05T12:18:18.904Z,25.07
2023-04-05T12:20:18.935Z,25.05
2023-04-05T12:22:18.951Z,24.98
2023-04-05T12:24:18.896Z,24.92
2023-04-05T12:26:18.924Z,25.00
2023-04-05T12:28:18.961Z,25.10
2023-04-05T12:30:18.883Z,27.04
2023-04-05T12:32:20.135Z,26.75
2023-04-05T12:34:18.957Z,25.05
2023-04-05T12:36:19.042Z,25.08
2023-04-05T12:38:19.008Z,25.05
2023-04-05T12:40:18.946Z,24.95
2023-04-05T12:42:18.951Z,25.13
2023-04-05T12:44:18.852Z,25.21
2023-04-05T12:46:19.007Z,25.09
2023-04-05T12:48:18.916Z,27.00
2023-04-05T12:50:18.903Z,26.91
2023-04-05T12:52:18.980Z,25.08
2023-04-05T12:54:19.051Z,25.08
2023-04-05T12:56:18.910Z,25.21
2023-04-05T12:58:18.943Z,26.94
2023-04-05T13:00:18.982Z,25.08
2023-04-05T13:02:18.956Z,25.00
2023-04-05T13:04:19.059Z,26.85
2023-04-05T13:06:18.923Z,25.38
2023-04-05T13:08:18.857Z,25.37
2023-04-05T13:10:18.962Z,25.33
2023-04-05T13:12:18.955Z,25.32
2023-04-05T13:14:18.990Z,25.21
2023-04-05T13:16:19.043Z,27.07
2023-04-05T13:18:19.040Z,26.94
2023-04-05T13:20:18.990Z,25.06
2023-04-05T13:22:18.913Z,25.11
2023-04-05T13:24:18.933Z,25.03
2023-04-05T13:26:18.937Z,24.98
2023-04-05T13:28:18.917Z,24.90
2023-04-05T13:30:19.015Z,25.19
2023-04-05T13:32:19.021Z,25.49
2023-04-05T13:34:19.009Z,25.40
2023-04-05T13:36:19.093Z,25.29
2023-04-05T13:38:19.005Z,25.29
2023-04-05T13:40:19.081Z,25.23
2023-04-05T13:42:19.044Z,25.32
2023-04-05T13:44:19.000Z,25.13
2023-04-05T13:46:19.011Z,25.33
2023-04-05T13:48:19.067Z,25.09
2023-04-05T13:50:19.013Z,25.18
2023-04-05T13:52:19.014Z,25.40
2023-04-05T13:54:19.067Z,25.12
2023-04-05T13:56:19.028Z,25.12
2023-04-05T13:58:19.000Z,24.77
2023-04-05T14:00:19.176Z,25.27
2023-04-05T14:02:19.074Z,25.25
2023-04-05T14:04:19.057Z,25.10
2023-04-05T14:06:19.030Z,24.98
2023-04-05T14:08:19.026Z,25.13
2023-04-05T14:10:18.996Z,25.76
2023-04-05T14:12:19.073Z,26.94
2023-04-05T14:14:19.072Z,25.05
2023-04-05T14:16:19.060Z,25.01
2023-04-05T14:18:19.052Z,25.03
2023-04-05T14:20:19.028Z,25.07
2023-04-05T14:22:19.158Z,26.93
2023-04-05T14:24:19.089Z,25.05
2023-04-05T14:26:18.982Z,25.09
2023-04-05T14:28:19.064Z,25.11
2023-04-05T14:30:19.042Z,27.00
2023-04-05T14:32:18.970Z,25.09
2023-04-05T14:34:19.083Z,25.04
2023-04-05T14:36:19.149Z,25.12
2023-04-05T14:38:19.082Z,25.05
2023-04-05T14:40:19.125Z,26.39
2023-04-05T14:42:19.069Z,26.98
2023-04-05T14:44:19.096Z,25.17
2023-04-05T14:46:19.075Z,25.23
2023-04-05T14:48:19.143Z,25.03
2023-04-05T14:50:19.072Z,25.05
2023-04-05T14:52:19.111Z,25.11
2023-04-05T14:54:19.178Z,25.01
2023-04-05T14:56:19.054Z,25.06
2023-04-05T14:58:19.104Z,27.01
2023-04-05T15:00:19.121Z,24.99
2023-04-05T15:02:19.091Z,26.78
2023-04-05T15:04:19.136Z,25.08
2023-04-05T15:06:19.107Z,25.13
2023-04-05T15:08:19.030Z,25.20
2023-04-05T15:10:19.085Z,25.35
2023-04-05T15:12:19.158Z,25.36
2023-04-05T15:14:31.128Z,25.47
2023-04-05T15:16:19.160Z,27.06
2023-04-05T15:18:19.182Z,25.37
2023-04-05T15:20:20.166Z,25.40
2023-04-05T15:22:19.122Z,25.32
2023-04-05T15:24:19.144Z,25.39
2023-04-05T15:26:19.144Z,25.39
2023-04-05T15:28:19.144Z,25.12
2023-04-05T15:30:19.111Z,26.96
2023-04-05T15:32:19.045Z,25.04
2023-04-05T15:34:19.136Z,25.29
2023-04-05T15:36:19.098Z,25.10
2023-04-05T15:38:19.101Z,25.10
2023-04-05T15:40:19.197Z,25.11
2023-04-05T15:42:19.162Z,25.51
2023-04-05T15:44:19.020Z,25.46
2023-04-05T15:46:19.164Z,25.44
2023-04-05T15:48:19.038Z,25.39
2023-04-05T15:50:19.175Z,25.05
2023-04-05T15:52:19.178Z,25.04
2023-04-05T15:54:19.185Z,25.20
2023-04-05T15:56:19.205Z,25.37
2023-04-05T15:58:19.238Z,25.44
2023-04-05T16:00:19.083Z,25.21
2023-04-05T16:02:19.127Z,25.28
2023-04-05T16:04:19.268Z,25.33
2023-04-05T16:06:19.181Z,25.36
2023-04-05T16:08:19.248Z,25.10
2023-04-05T16:10:19.148Z,25.14
2023-04-05T16:12:19.163Z,25.14
2023-04-05T16:14:19.179Z,25.11
2023-04-05T16:16:29.974Z,25.17
2023-04-05T16:18:19.224Z,25.15
2023-04-05T16:20:19.196Z,25.12
2023-04-05T16:22:19.224Z,25.19
2023-04-05T16:24:19.163Z,25.12
2023-04-05T16:26:19.095Z,25.05
2023-04-05T16:28:19.196Z,25.05
2023-04-05T16:30:19.206Z,25.09
2023-04-05T16:32:19.306Z,24.95
2023-04-05T16:34:19.177Z,24.80
2023-04-05T16:36:19.201Z,24.71
2023-04-05T16:38:19.235Z,24.73
2023-04-05T16:40:19.111Z,24.66
2023-04-05T16:42:19.118Z,24.73
2023-04-05T16:44:19.217Z,24.75
2023-04-05T16:46:19.311Z,24.73
2023-04-05T16:48:19.228Z,24.66
2023-04-05T16:50:19.243Z,24.61
2023-04-05T16:52:19.170Z,24.66
2023-04-05T16:54:19.239Z,24.62
2023-04-05T16:56:19.203Z,24.59
2023-04-05T16:58:19.224Z,24.51
2023-04-05T17:00:19.223Z,24.47
2023-04-05T17:02:19.362Z,24.41
2023-04-05T17:04:19.253Z,24.51
2023-04-05T17:06:19.262Z,24.38
2023-04-05T17:08:19.288Z,24.39
2023-04-05T17:10:19.252Z,24.36
2023-04-05T17:12:19.214Z,24.27
2023-04-05T17:14:19.231Z,24.24
2023-04-05T17:16:19.367Z,24.21
2023-04-05T17:18:20.934Z,24.12
2023-04-05T17:20:19.284Z,24.10
2023-04-05T17:22:19.305Z,24.04
2023-04-05T17:24:19.260Z,24.10
2023-04-05T17:26:19.306Z,23.96
2023-04-05T17:28:19.228Z,23.96
2023-04-05T17:30:19.144Z,23.88
2023-04-05T17:32:19.317Z,23.84
2023-04-05T17:34:19.286Z,23.90
2023-04-05T17:36:19.278Z,23.81
2023-04-05T17:38:19.302Z,23.86
2023-04-05T17:40:19.365Z,23.76
2023-04-05T17:42:19.255Z,23.73
2023-04-05T17:44:19.323Z,23.71
2023-04-05T17:46:27.392Z,23.70
2023-04-05T17:48:19.378Z,23.68
2023-04-05T17:50:19.294Z,23.68
2023-04-05T17:52:19.296Z,23.63
2023-04-05T17:54:19.297Z,23.69
2023-04-05T17:56:19.295Z,23.67
2023-04-05T17:58:19.183Z,23.66
2023-04-05T18:00:19.364Z,23.73
2023-04-05T18:02:19.376Z,23.81
2023-04-05T18:04:19.325Z,23.87
2023-04-05T18:06:19.298Z,23.86
2023-04-05T18:08:19.347Z,23.89
2023-04-05T18:10:19.307Z,23.90
2023-04-05T18:12:19.328Z,23.89
2023-04-05T18:14:19.274Z,23.97
2023-04-05T18:16:19.264Z,23.90
2023-04-05T18:18:19.223Z,23.93
2023-04-05T18:20:19.320Z,23.90
2023-04-05T18:22:19.275Z,23.98
2023-04-05T18:24:19.356Z,27.08
2023-04-05T18:26:19.285Z,27.14
2023-04-05T18:28:22.843Z,25.65
2023-04-05T18:30:19.124Z,25.52
2023-04-05T18:32:19.393Z,25.52
2023-04-05T18:34:19.350Z,25.56
2023-04-05T18:36:19.420Z,25.64
2023-04-05T18:38:19.368Z,25.52
2023-04-05T18:40:19.366Z,25.54
2023-04-05T18:42:19.334Z,25.54
2023-04-05T18:44:19.364Z,25.52
2023-04-05T18:46:19.450Z,25.65
2023-04-05T18:48:19.363Z,25.57
2023-04-05T18:50:19.343Z,25.52
2023-04-05T18:52:19.306Z,25.56
2023-04-05T18:54:19.547Z,25.54
2023-04-05T18:56:19.365Z,25.53
2023-04-05T18:58:19.224Z,25.52
2023-04-05T19:00:19.492Z,25.58
2023-04-05T19:02:19.323Z,25.58
2023-04-05T19:04:19.365Z,25.56
2023-04-05T19:06:19.393Z,25.52
2023-04-05T19:08:19.315Z,25.52
2023-04-05T19:10:19.478Z,25.52
2023-04-05T19:12:19.496Z,25.60
2023-04-05T19:14:19.498Z,25.53
2023-04-05T19:16:19.482Z,25.51
2023-04-05T19:18:19.343Z,25.52
2023-04-05T19:20:19.325Z,25.54
2023-04-05T19:22:19.308Z,25.61
2023-04-05T19:24:19.377Z,25.54
2023-04-05T19:26:21.247Z,25.52
2023-04-05T19:28:19.384Z,25.51
2023-04-05T19:30:19.210Z,25.52
2023-04-05T19:32:19.488Z,25.56
2023-04-05T19:34:19.202Z,25.54
2023-04-05T19:36:19.525Z,25.52
2023-04-05T19:38:19.371Z,25.51
2023-04-05T19:40:19.422Z,25.61
2023-04-05T19:42:19.278Z,25.52
2023-04-05T19:44:19.238Z,25.52
2023-04-05T19:46:19.456Z,25.52
2023-04-05T19:48:19.463Z,25.52
2023-04-05T19:50:22.443Z,25.44
2023-04-05T19:52:19.410Z,25.61
2023-04-05T19:54:19.350Z,25.51
2023-04-05T19:56:19.407Z,25.53
2023-04-05T19:58:19.374Z,25.52
2023-04-05T20:00:19.360Z,25.52
2023-04-05T20:02:19.451Z,25.51
2023-04-05T20:04:19.449Z,25.52
2023-04-05T20:06:19.329Z,25.52
2023-04-05T20:08:19.489Z,25.54
2023-04-05T20:10:19.454Z,25.54
2023-04-05T20:12:19.267Z,25.52
2023-04-05T20:14:19.347Z,25.56
2023-04-05T20:16:19.411Z,25.60
2023-04-05T20:18:19.417Z,25.54
2023-04-05T20:20:19.405Z,25.52
2023-04-05T20:22:19.405Z,25.60
2023-04-05T20:24:20.568Z,25.47
2023-04-05T20:26:19.327Z,25.48
2023-04-05T20:28:19.472Z,25.52
2023-04-05T20:30:19.369Z,25.65
2023-04-05T20:32:19.470Z,25.58
2023-04-05T20:34:19.464Z,25.52
2023-04-05T20:36:19.519Z,25.52
2023-04-05T20:38:19.499Z,25.54
2023-04-05T20:40:19.398Z,25.52
2023-04-05T20:42:19.494Z,25.52
2023-04-05T20:44:19.338Z,25.52
2023-04-05T20:46:19.613Z,25.55
2023-04-05T20:48:19.309Z,25.52
2023-04-05T20:50:19.425Z,25.54
2023-04-05T20:52:19.418Z,25.49
2023-04-05T20:54:19.632Z,25.53
2023-04-05T20:56:19.505Z,25.49
2023-04-05T20:58:19.415Z,25.52
2023-04-05T21:00:19.456Z,25.47
2023-04-05T21:02:19.566Z,25.53
2023-04-05T21:04:19.474Z,25.52
2023-04-05T21:06:19.484Z,25.50
2023-04-05T21:08:19.487Z,25.56
2023-04-05T21:10:19.482Z,25.52
2023-04-05T21:12:19.526Z,25.52
2023-04-05T21:14:19.319Z,25.53
2023-04-05T21:16:19.429Z,25.52
2023-04-05T21:18:19.855Z,25.52
2023-04-05T21:20:19.526Z,25.52
2023-04-05T21:22:19.565Z,25.58
2023-04-05T21:24:19.497Z,25.50
2023-04-05T21:26:19.524Z,25.52
2023-04-05T21:28:19.542Z,25.52
2023-04-05T21:30:19.448Z,25.52
2023-04-05T21:32:19.394Z,25.52
2023-04-05T21:34:19.473Z,25.52
2023-04-05T21:36:19.593Z,25.52
2023-04-05T21:38:19.439Z,25.52
2023-04-05T21:40:19.454Z,25.54
2023-04-05T21:42:19.443Z,25.49
2023-04-05T21:44:19.534Z,25.50
2023-04-05T21:46:20.708Z,25.49
2023-04-05T21:48:19.522Z,25.58
2023-04-05T21:50:19.463Z,25.47
2023-04-05T21:52:19.514Z,25.58
2023-04-05T21:54:19.529Z,25.52
2023-04-05T21:56:19.508Z,25.51
2023-04-05T21:58:19.468Z,25.54
2023-04-05T22:00:19.523Z,25.51
2023-04-05T22:02:19.636Z,25.58
2023-04-05T22:04:19.568Z,25.58
2023-04-05T22:06:19.565Z,25.51
2023-04-05T22:08:19.619Z,25.56
2023-04-05T22:10:19.591Z,25.56
2023-04-05T22:12:19.540Z,25.58
2023-04-05T22:14:19.501Z,25.57
2023-04-05T22:16:19.510Z,25.60
2023-04-05T22:18:19.485Z,25.63
2023-04-05T22:20:19.556Z,25.61
2023-04-05T22:22:19.537Z,25.54
2023-04-05T22:24:19.521Z,25.57
2023-04-05T22:26:19.561Z,25.56
2023-04-05T22:28:19.602Z,25.53
2023-04-05T22:30:19.567Z,25.55
2023-04-05T22:32:19.524Z,25.54
2023-04-05T22:34:19.585Z,25.56
2023-04-05T22:36:19.514Z,25.55
2023-04-05T22:38:19.704Z,25.52
2023-04-05T22:40:19.562Z,25.54
2023-04-05T22:42:19.562Z,25.56
2023-04-05T22:44:19.806Z,25.52
2023-04-05T22:46:19.506Z,25.56
2023-04-05T22:48:19.599Z,25.60
2023-04-05T22:50:19.539Z,25.56
2023-04-05T22:52:19.489Z,25.58
2023-04-05T22:54:19.518Z,25.55
2023-04-05T22:56:19.653Z,25.65
2023-04-05T22:58:19.566Z,25.65
2023-04-05T23:00:19.597Z,25.64
2023-04-05T23:02:19.564Z,25.65
2023-04-05T23:04:19.635Z,25.65
2023-04-05T23:06:19.578Z,25.65
2023-04-05T23:08:19.629Z,25.60
2023-04-05T23:10:19.494Z,25.65
2023-04-05T23:12:19.577Z,25.60
2023-04-05T23:14:19.597Z,25.58
2023-04-05T23:16:19.658Z,25.60
2023-04-05T23:18:19.617Z,25.57
2023-04-05T23:20:19.494Z,25.60
2023-04-05T23:22:19.627Z,25.60
2023-04-05T23:24:19.636Z,25.60
2023-04-05T23:26:19.619Z,25.60
2023-04-05T23:28:19.636Z,25.56
2023-04-05T23:30:19.609Z,25.60
2023-04-05T23:32:19.567Z,25.54
2023-04-05T23:34:19.570Z,25.52
2023-04-05T23:36:19.670Z,25.56
2023-04-05T23:38:19.534Z,25.54
2023-04-05T23:40:19.694Z,25.61
2023-04-05T23:42:19.686Z,25.57
2023-04-05T23:44:19.624Z,25.58
2023-04-05T23:46:19.607Z,25.55
2023-04-05T23:48:19.614Z,25.57
2023-04-05T23:50:19.669Z,25.52
2023-04-05T23:52:19.540Z,25.57
2023-04-05T23:54:19.684Z,25.52
2023-04-05T23:56:19.699Z,25.64
2023-04-05T23:58:19.614Z,25.54
